sensor_id;sensor_type;location;lat;lon;timestamp;temperature;humidity
19755;DHT22;10036;47.812;9.274;2022-07-22T00:01:03;20.10;99.90
19755;DHT22;10036;47.812;9.274;2022-07-22T00:03:30;20.00;99.90
19755;DHT22;10036;47.812;9.274;2022-07-22T00:05:57;20.10;99.90
19755;DHT22;10036;47.812;9.274;2022-07-22T00:08:23;20.10;99.90
19755;DHT22;10036;47.812;9.274;2022-07-22T00:10:50;20.10;99.90
19755;DHT22;10036;47.812;9.274;2022-07-22T00:13:18;20.10;99.90
19755;DHT22;10036;47.812;9.274;2022-07-22T00:15:44;20.20;99.90
19755;DHT22;10036;47.812;9.274;2022-07-22T00:18:13;20.10;99.90
19755;DHT22;10036;47.812;9.274;2022-07-22T00:20:40;20.10;99.90
19755;DHT22;10036;47.812;9.274;2022-07-22T00:23:07;20.00;99.90
19755;DHT22;10036;47.812;9.274;2022-07-22T00:25:34;20.00;99.90
19755;DHT22;10036;47.812;9.274;2022-07-22T00:28:01;20.10;99.90
19755;DHT22;10036;47.812;9.274;2022-07-22T00:30:28;20.20;99.90
19755;DHT22;10036;47.812;9.274;2022-07-22T00:32:55;20.20;99.90
19755;DHT22;10036;47.812;9.274;2022-07-22T00:35:23;20.10;99.90
19755;DHT22;10036;47.812;9.274;2022-07-22T00:37:50;20.10;99.90
19755;DHT22;10036;47.812;9.274;2022-07-22T00:40:17;20.10;99.90
19755;DHT22;10036;47.812;9.274;2022-07-22T00:42:44;20.10;99.90
19755;DHT22;10036;47.812;9.274;2022-07-22T00:45:11;20.10;99.90
19755;DHT22;10036;47.812;9.274;2022-07-22T00:47:38;20.00;99.90
19755;DHT22;10036;47.812;9.274;2022-07-22T00:50:05;20.00;99.90
19755;DHT22;10036;47.812;9.274;2022-07-22T00:52:34;19.90;99.90
19755;DHT22;10036;47.812;9.274;2022-07-22T00:55:02;19.90;99.90
19755;DHT22;10036;47.812;9.274;2022-07-22T00:57:29;19.80;99.90
19755;DHT22;10036;47.812;9.274;2022-07-22T00:59:56;19.90;99.90
19755;DHT22;10036;47.812;9.274;2022-07-22T01:02:23;19.90;99.90
19755;DHT22;10036;47.812;9.274;2022-07-22T01:04:50;19.80;99.90
19755;DHT22;10036;47.812;9.274;2022-07-22T01:07:17;19.70;99.90
19755;DHT22;10036;47.812;9.274;2022-07-22T01:09:45;19.70;99.90
19755;DHT22;10036;47.812;9.274;2022-07-22T01:12:13;19.70;99.90
19755;DHT22;10036;47.812;9.274;2022-07-22T01:14:40;19.70;99.90
19755;DHT22;10036;47.812;9.274;2022-07-22T01:17:07;19.60;99.90
19755;DHT22;10036;47.812;9.274;2022-07-22T01:19:35;19.70;99.90
19755;DHT22;10036;47.812;9.274;2022-07-22T01:22:03;19.80;99.90
19755;DHT22;10036;47.812;9.274;2022-07-22T01:24:30;19.70;99.90
19755;DHT22;10036;47.812;9.274;2022-07-22T01:26:57;19.80;99.90
19755;DHT22;10036;47.812;9.274;2022-07-22T01:29:24;19.60;99.90
19755;DHT22;10036;47.812;9.274;2022-07-22T01:31:51;19.60;99.90
19755;DHT22;10036;47.812;9.274;2022-07-22T01:34:18;19.60;99.90
19755;DHT22;10036;47.812;9.274;2022-07-22T01:36:45;19.70;99.90
19755;DHT22;10036;47.812;9.274;2022-07-22T01:39:13;19.60;99.90
19755;DHT22;10036;47.812;9.274;2022-07-22T01:41:41;19.60;99.90
19755;DHT22;10036;47.812;9.274;2022-07-22T01:44:08;19.60;99.90
19755;DHT22;10036;47.812;9.274;2022-07-22T01:46:35;19.60;99.90
19755;DHT22;10036;47.812;9.274;2022-07-22T01:49:02;19.50;99.90
19755;DHT22;10036;47.812;9.274;2022-07-22T01:51:29;19.60;99.90
19755;DHT22;10036;47.812;9.274;2022-07-22T01:53:55;19.60;99.90
19755;DHT22;10036;47.812;9.274;2022-07-22T01:56:24;19.50;99.90
19755;DHT22;10036;47.812;9.274;2022-07-22T01:58:51;19.50;99.90
19755;DHT22;10036;47.812;9.274;2022-07-22T02:01:17;19.50;99.90
19755;DHT22;10036;47.812;9.274;2022-07-22T02:03:44;19.60;99.90
19755;DHT22;10036;47.812;9.274;2022-07-22T02:06:11;19.50;99.90
19755;DHT22;10036;47.812;9.274;2022-07-22T02:08:38;19.40;99.90
19755;DHT22;10036;47.812;9.274;2022-07-22T02:11:05;19.40;99.90
19755;DHT22;10036;47.812;9.274;2022-07-22T02:13:34;19.50;99.90
19755;DHT22;10036;47.812;9.274;2022-07-22T02:16:00;19.50;99.90
19755;DHT22;10036;47.812;9.274;2022-07-22T02:18:28;19.50;99.90
19755;DHT22;10036;47.812;9.274;2022-07-22T02:20:55;19.50;99.90
19755;DHT22;10036;47.812;9.274;2022-07-22T02:23:22;19.60;99.90
19755;DHT22;10036;47.812;9.274;2022-07-22T02:25:49;19.40;99.90
19755;DHT22;10036;47.812;9.274;2022-07-22T02:28:15;19.50;99.90
19755;DHT22;10036;47.812;9.274;2022-07-22T02:30:44;19.40;99.90
19755;DHT22;10036;47.812;9.274;2022-07-22T02:33:11;19.40;99.90
19755;DHT22;10036;47.812;9.274;2022-07-22T02:35:38;19.50;99.90
19755;DHT22;10036;47.812;9.274;2022-07-22T02:38:04;19.50;99.90
19755;DHT22;10036;47.812;9.274;2022-07-22T02:40:32;19.40;99.90
19755;DHT22;10036;47.812;9.274;2022-07-22T02:42:59;19.30;99.90
19755;DHT22;10036;47.812;9.274;2022-07-22T02:45:26;19.30;99.90
19755;DHT22;10036;47.812;9.274;2022-07-22T02:47:55;19.30;99.90
19755;DHT22;10036;47.812;9.274;2022-07-22T02:50:22;19.20;99.90
19755;DHT22;10036;47.812;9.274;2022-07-22T02:52:49;19.10;99.90
19755;DHT22;10036;47.812;9.274;2022-07-22T02:55:17;19.00;99.90
19755;DHT22;10036;47.812;9.274;2022-07-22T02:57:44;18.90;99.90
19755;DHT22;10036;47.812;9.274;2022-07-22T03:00:12;18.80;99.90
19755;DHT22;10036;47.812;9.274;2022-07-22T03:02:39;18.90;99.90
19755;DHT22;10036;47.812;9.274;2022-07-22T03:05:08;18.90;99.90
19755;DHT22;10036;47.812;9.274;2022-07-22T03:07:35;18.80;99.90
19755;DHT22;10036;47.812;9.274;2022-07-22T03:10:03;18.80;99.90
19755;DHT22;10036;47.812;9.274;2022-07-22T03:12:30;18.70;99.90
19755;DHT22;10036;47.812;9.274;2022-07-22T03:14:57;18.70;99.90
19755;DHT22;10036;47.812;9.274;2022-07-22T03:17:24;18.70;99.90
19755;DHT22;10036;47.812;9.274;2022-07-22T03:19:51;18.70;99.90
19755;DHT22;10036;47.812;9.274;2022-07-22T03:22:19;18.80;99.90
19755;DHT22;10036;47.812;9.274;2022-07-22T03:24:46;18.80;99.90
19755;DHT22;10036;47.812;9.274;2022-07-22T03:27:13;18.80;99.90
19755;DHT22;10036;47.812;9.274;2022-07-22T03:29:40;18.80;99.90
19755;DHT22;10036;47.812;9.274;2022-07-22T03:32:06;18.70;99.90
19755;DHT22;10036;47.812;9.274;2022-07-22T03:34:33;18.70;99.90
19755;DHT22;10036;47.812;9.274;2022-07-22T03:37:00;18.70;99.90
19755;DHT22;10036;47.812;9.274;2022-07-22T03:39:29;18.80;99.90
19755;DHT22;10036;47.812;9.274;2022-07-22T03:41:55;18.70;99.90
19755;DHT22;10036;47.812;9.274;2022-07-22T03:44:22;18.80;99.90
19755;DHT22;10036;47.812;9.274;2022-07-22T03:46:49;18.80;99.90
19755;DHT22;10036;47.812;9.274;2022-07-22T03:49:16;18.90;99.90
19755;DHT22;10036;47.812;9.274;2022-07-22T03:51:43;18.80;99.90
19755;DHT22;10036;47.812;9.274;2022-07-22T03:54:10;18.80;99.90
19755;DHT22;10036;47.812;9.274;2022-07-22T03:56:39;18.60;99.90
19755;DHT22;10036;47.812;9.274;2022-07-22T03:59:05;18.60;99.90
19755;DHT22;10036;47.812;9.274;2022-07-22T04:01:32;18.60;99.90
19755;DHT22;10036;47.812;9.274;2022-07-22T04:03:59;18.50;99.90
19755;DHT22;10036;47.812;9.274;2022-07-22T04:06:26;18.50;99.90
19755;DHT22;10036;47.812;9.274;2022-07-22T04:08:53;18.50;99.90
19755;DHT22;10036;47.812;9.274;2022-07-22T04:11:20;18.50;99.90
19755;DHT22;10036;47.812;9.274;2022-07-22T04:13:49;18.50;99.90
19755;DHT22;10036;47.812;9.274;2022-07-22T04:16:16;18.40;99.90
19755;DHT22;10036;47.812;9.274;2022-07-22T04:18:42;18.50;99.90
19755;DHT22;10036;47.812;9.274;2022-07-22T04:21:09;18.50;99.90
19755;DHT22;10036;47.812;9.274;2022-07-22T04:23:36;18.60;99.90
19755;DHT22;10036;47.812;9.274;2022-07-22T04:26:05;18.60;99.90
19755;DHT22;10036;47.812;9.274;2022-07-22T04:28:33;18.50;99.90
19755;DHT22;10036;47.812;9.274;2022-07-22T04:31:02;18.50;99.90
19755;DHT22;10036;47.812;9.274;2022-07-22T04:33:29;18.50;99.90
19755;DHT22;10036;47.812;9.274;2022-07-22T04:35:56;18.40;99.90
19755;DHT22;10036;47.812;9.274;2022-07-22T04:38:23;18.40;99.90
19755;DHT22;10036;47.812;9.274;2022-07-22T04:40:50;18.50;99.90
19755;DHT22;10036;47.812;9.274;2022-07-22T04:43:17;18.60;99.90
19755;DHT22;10036;47.812;9.274;2022-07-22T04:45:44;18.50;99.90
19755;DHT22;10036;47.812;9.274;2022-07-22T04:48:12;18.60;99.90
19755;DHT22;10036;47.812;9.274;2022-07-22T04:50:39;18.60;99.90
19755;DHT22;10036;47.812;9.274;2022-07-22T04:53:06;18.60;99.90
19755;DHT22;10036;47.812;9.274;2022-07-22T04:55:33;18.60;99.90
19755;DHT22;10036;47.812;9.274;2022-07-22T04:58:00;18.60;99.90
19755;DHT22;10036;47.812;9.274;2022-07-22T05:00:27;18.70;99.90
19755;DHT22;10036;47.812;9.274;2022-07-22T05:02:54;18.70;99.90
19755;DHT22;10036;47.812;9.274;2022-07-22T05:05:23;18.80;99.90
19755;DHT22;10036;47.812;9.274;2022-07-22T05:07:51;18.80;99.90
19755;DHT22;10036;47.812;9.274;2022-07-22T05:10:17;18.90;99.90
19755;DHT22;10036;47.812;9.274;2022-07-22T05:12:44;19.00;99.90
19755;DHT22;10036;47.812;9.274;2022-07-22T05:15:11;19.00;99.90
19755;DHT22;10036;47.812;9.274;2022-07-22T05:17:38;19.10;99.90
19755;DHT22;10036;47.812;9.274;2022-07-22T05:20:06;19.10;99.90
19755;DHT22;10036;47.812;9.274;2022-07-22T05:22:34;19.20;99.90
19755;DHT22;10036;47.812;9.274;2022-07-22T05:25:01;19.30;99.90
19755;DHT22;10036;47.812;9.274;2022-07-22T05:27:28;19.30;99.90
19755;DHT22;10036;47.812;9.274;2022-07-22T05:29:56;19.40;99.90
19755;DHT22;10036;47.812;9.274;2022-07-22T05:32:23;19.50;99.90
19755;DHT22;10036;47.812;9.274;2022-07-22T05:34:50;19.50;99.90
19755;DHT22;10036;47.812;9.274;2022-07-22T05:37:17;19.60;99.90
19755;DHT22;10036;47.812;9.274;2022-07-22T05:39:45;19.70;99.90
19755;DHT22;10036;47.812;9.274;2022-07-22T05:42:12;19.80;99.90
19755;DHT22;10036;47.812;9.274;2022-07-22T05:44:39;19.90;99.90
19755;DHT22;10036;47.812;9.274;2022-07-22T05:47:06;20.00;99.90
19755;DHT22;10036;47.812;9.274;2022-07-22T05:49:33;20.00;99.90
19755;DHT22;10036;47.812;9.274;2022-07-22T05:51:59;20.10;99.90
19755;DHT22;10036;47.812;9.274;2022-07-22T05:54:27;20.10;99.90
19755;DHT22;10036;47.812;9.274;2022-07-22T05:56:55;20.20;99.90
19755;DHT22;10036;47.812;9.274;2022-07-22T05:59:22;20.20;99.90
19755;DHT22;10036;47.812;9.274;2022-07-22T06:01:49;20.20;99.90
19755;DHT22;10036;47.812;9.274;2022-07-22T06:04:16;20.30;99.90
19755;DHT22;10036;47.812;9.274;2022-07-22T06:06:43;20.40;99.90
19755;DHT22;10036;47.812;9.274;2022-07-22T06:09:10;20.40;99.90
19755;DHT22;10036;47.812;9.274;2022-07-22T06:11:36;20.50;99.90
19755;DHT22;10036;47.812;9.274;2022-07-22T06:14:05;20.60;99.90
19755;DHT22;10036;47.812;9.274;2022-07-22T06:16:31;20.60;99.90
19755;DHT22;10036;47.812;9.274;2022-07-22T06:18:59;20.60;99.90
19755;DHT22;10036;47.812;9.274;2022-07-22T06:21:26;20.60;99.90
19755;DHT22;10036;47.812;9.274;2022-07-22T06:23:53;20.70;99.90
19755;DHT22;10036;47.812;9.274;2022-07-22T06:26:20;20.90;99.90
19755;DHT22;10036;47.812;9.274;2022-07-22T06:28:47;21.00;99.90
19755;DHT22;10036;47.812;9.274;2022-07-22T06:31:15;21.10;99.90
19755;DHT22;10036;47.812;9.274;2022-07-22T06:33:43;21.20;99.90
19755;DHT22;10036;47.812;9.274;2022-07-22T06:36:10;21.30;99.90
19755;DHT22;10036;47.812;9.274;2022-07-22T06:38:37;21.40;99.90
19755;DHT22;10036;47.812;9.274;2022-07-22T06:41:04;21.40;99.90
19755;DHT22;10036;47.812;9.274;2022-07-22T06:43:30;21.40;99.90
19755;DHT22;10036;47.812;9.274;2022-07-22T06:45:57;21.60;99.90
19755;DHT22;10036;47.812;9.274;2022-07-22T06:48:26;21.60;99.90
19755;DHT22;10036;47.812;9.274;2022-07-22T06:50:53;21.70;99.90
19755;DHT22;10036;47.812;9.274;2022-07-22T06:53:20;21.70;99.90
19755;DHT22;10036;47.812;9.274;2022-07-22T06:55:47;21.80;99.90
19755;DHT22;10036;47.812;9.274;2022-07-22T06:58:14;21.90;99.90
19755;DHT22;10036;47.812;9.274;2022-07-22T07:00:40;21.90;99.90
19755;DHT22;10036;47.812;9.274;2022-07-22T07:03:07;22.00;99.90
19755;DHT22;10036;47.812;9.274;2022-07-22T07:05:36;22.10;99.90
19755;DHT22;10036;47.812;9.274;2022-07-22T07:08:03;22.20;99.90
19755;DHT22;10036;47.812;9.274;2022-07-22T07:10:30;22.40;99.90
19755;DHT22;10036;47.812;9.274;2022-07-22T07:12:57;22.50;99.90
19755;DHT22;10036;47.812;9.274;2022-07-22T07:15:24;22.50;99.90
19755;DHT22;10036;47.812;9.274;2022-07-22T07:17:51;22.60;99.90
19755;DHT22;10036;47.812;9.274;2022-07-22T07:20:18;22.70;99.90
19755;DHT22;10036;47.812;9.274;2022-07-22T07:22:46;22.70;99.90
19755;DHT22;10036;47.812;9.274;2022-07-22T07:25:13;22.80;99.90
19755;DHT22;10036;47.812;9.274;2022-07-22T07:27:40;22.90;99.90
19755;DHT22;10036;47.812;9.274;2022-07-22T07:30:08;23.00;99.90
19755;DHT22;10036;47.812;9.274;2022-07-22T07:32:35;23.00;99.90
19755;DHT22;10036;47.812;9.274;2022-07-22T07:35:02;23.10;99.90
19755;DHT22;10036;47.812;9.274;2022-07-22T07:37:29;23.10;99.90
19755;DHT22;10036;47.812;9.274;2022-07-22T07:39:58;23.20;99.90
19755;DHT22;10036;47.812;9.274;2022-07-22T07:42:25;23.40;99.90
19755;DHT22;10036;47.812;9.274;2022-07-22T07:44:52;23.40;99.90
19755;DHT22;10036;47.812;9.274;2022-07-22T07:47:19;23.50;99.90
19755;DHT22;10036;47.812;9.274;2022-07-22T07:49:47;23.60;99.90
19755;DHT22;10036;47.812;9.274;2022-07-22T07:52:15;23.70;99.90
19755;DHT22;10036;47.812;9.274;2022-07-22T07:54:43;23.80;99.90
19755;DHT22;10036;47.812;9.274;2022-07-22T07:57:12;23.80;99.90
19755;DHT22;10036;47.812;9.274;2022-07-22T07:59:39;23.90;99.90
19755;DHT22;10036;47.812;9.274;2022-07-22T08:02:06;23.90;99.90
19755;DHT22;10036;47.812;9.274;2022-07-22T08:04:35;23.90;99.90
19755;DHT22;10036;47.812;9.274;2022-07-22T08:07:02;24.00;99.90
19755;DHT22;10036;47.812;9.274;2022-07-22T08:09:29;24.20;99.90
19755;DHT22;10036;47.812;9.274;2022-07-22T08:11:56;24.20;99.90
19755;DHT22;10036;47.812;9.274;2022-07-22T08:14:25;24.20;99.90
19755;DHT22;10036;47.812;9.274;2022-07-22T08:16:52;24.30;99.90
19755;DHT22;10036;47.812;9.274;2022-07-22T08:19:19;24.30;99.90
19755;DHT22;10036;47.812;9.274;2022-07-22T08:21:46;24.40;99.90
19755;DHT22;10036;47.812;9.274;2022-07-22T08:24:12;24.50;99.90
19755;DHT22;10036;47.812;9.274;2022-07-22T08:26:39;24.50;99.90
19755;DHT22;10036;47.812;9.274;2022-07-22T08:29:06;24.60;99.90
19755;DHT22;10036;47.812;9.274;2022-07-22T08:31:36;24.70;99.90
19755;DHT22;10036;47.812;9.274;2022-07-22T08:34:04;24.80;99.90
19755;DHT22;10036;47.812;9.274;2022-07-22T08:36:31;25.00;99.90
19755;DHT22;10036;47.812;9.274;2022-07-22T08:38:59;25.10;99.90
19755;DHT22;10036;47.812;9.274;2022-07-22T08:41:26;25.10;99.90
19755;DHT22;10036;47.812;9.274;2022-07-22T08:43:53;25.20;99.90
19755;DHT22;10036;47.812;9.274;2022-07-22T08:46:19;25.30;99.90
19755;DHT22;10036;47.812;9.274;2022-07-22T08:48:48;25.40;99.90
19755;DHT22;10036;47.812;9.274;2022-07-22T08:51:15;25.50;99.90
19755;DHT22;10036;47.812;9.274;2022-07-22T08:53:42;25.50;99.90
19755;DHT22;10036;47.812;9.274;2022-07-22T08:56:11;25.60;99.90
19755;DHT22;10036;47.812;9.274;2022-07-22T08:58:39;25.60;99.90
19755;DHT22;10036;47.812;9.274;2022-07-22T09:01:07;25.70;99.90
19755;DHT22;10036;47.812;9.274;2022-07-22T09:03:44;25.60;99.90
19755;DHT22;10036;47.812;9.274;2022-07-22T09:06:13;25.70;99.90
19755;DHT22;10036;47.812;9.274;2022-07-22T09:08:54;25.80;99.90
19755;DHT22;10036;47.812;9.274;2022-07-22T09:11:24;25.90;99.90
19755;DHT22;10036;47.812;9.274;2022-07-22T09:13:51;26.10;99.90
19755;DHT22;10036;47.812;9.274;2022-07-22T09:16:40;26.10;99.90
19755;DHT22;10036;47.812;9.274;2022-07-22T09:19:07;26.20;99.90
19755;DHT22;10036;47.812;9.274;2022-07-22T09:21:38;26.20;99.90
19755;DHT22;10036;47.812;9.274;2022-07-22T09:24:06;26.20;99.90
19755;DHT22;10036;47.812;9.274;2022-07-22T09:26:35;26.20;99.90
19755;DHT22;10036;47.812;9.274;2022-07-22T09:29:04;26.30;99.90
19755;DHT22;10036;47.812;9.274;2022-07-22T09:31:33;26.40;99.90
19755;DHT22;10036;47.812;9.274;2022-07-22T09:34:01;26.40;99.90
19755;DHT22;10036;47.812;9.274;2022-07-22T09:36:28;26.50;99.90
19755;DHT22;10036;47.812;9.274;2022-07-22T09:38:57;26.60;99.90
19755;DHT22;10036;47.812;9.274;2022-07-22T09:41:24;26.70;99.90
19755;DHT22;10036;47.812;9.274;2022-07-22T09:43:51;26.70;99.90
19755;DHT22;10036;47.812;9.274;2022-07-22T09:46:34;26.70;99.90
19755;DHT22;10036;47.812;9.274;2022-07-22T09:49:01;26.80;99.90
19755;DHT22;10036;47.812;9.274;2022-07-22T09:51:29;27.00;99.90
19755;DHT22;10036;47.812;9.274;2022-07-22T09:53:58;27.00;99.90
19755;DHT22;10036;47.812;9.274;2022-07-22T09:56:25;27.10;99.90
19755;DHT22;10036;47.812;9.274;2022-07-22T09:58:55;27.00;99.90
19755;DHT22;10036;47.812;9.274;2022-07-22T10:01:22;27.10;99.90
19755;DHT22;10036;47.812;9.274;2022-07-22T10:03:51;27.20;99.90
19755;DHT22;10036;47.812;9.274;2022-07-22T10:06:20;27.30;99.90
19755;DHT22;10036;47.812;9.274;2022-07-22T10:08:48;27.20;99.90
19755;DHT22;10036;47.812;9.274;2022-07-22T10:11:18;27.20;99.90
19755;DHT22;10036;47.812;9.274;2022-07-22T10:13:45;27.30;99.90
19755;DHT22;10036;47.812;9.274;2022-07-22T10:16:13;27.40;99.90
19755;DHT22;10036;47.812;9.274;2022-07-22T10:18:44;27.50;99.90
19755;DHT22;10036;47.812;9.274;2022-07-22T10:21:11;27.60;99.90
19755;DHT22;10036;47.812;9.274;2022-07-22T10:24:10;27.70;99.90
19755;DHT22;10036;47.812;9.274;2022-07-22T10:26:48;27.70;99.90
19755;DHT22;10036;47.812;9.274;2022-07-22T10:29:29;27.70;99.90
19755;DHT22;10036;47.812;9.274;2022-07-22T10:32:22;27.90;99.90
19755;DHT22;10036;47.812;9.274;2022-07-22T10:35:23;28.30;99.90
19755;DHT22;10036;47.812;9.274;2022-07-22T10:38:01;28.70;99.90
19755;DHT22;10036;47.812;9.274;2022-07-22T10:40:32;29.00;99.90
19755;DHT22;10036;47.812;9.274;2022-07-22T10:43:13;29.30;99.90
19755;DHT22;10036;47.812;9.274;2022-07-22T10:45:42;29.60;99.90
19755;DHT22;10036;47.812;9.274;2022-07-22T10:48:13;30.10;99.90
19755;DHT22;10036;47.812;9.274;2022-07-22T10:50:41;30.70;99.90
19755;DHT22;10036;47.812;9.274;2022-07-22T10:53:10;31.40;99.90
19755;DHT22;10036;47.812;9.274;2022-07-22T10:55:56;31.60;99.60
19755;DHT22;10036;47.812;9.274;2022-07-22T10:58:44;32.00;99.20
19755;DHT22;10036;47.812;9.274;2022-07-22T11:01:13;32.50;95.50
19755;DHT22;10036;47.812;9.274;2022-07-22T11:03:44;32.90;94.60
19755;DHT22;10036;47.812;9.274;2022-07-22T11:06:22;32.80;93.50
19755;DHT22;10036;47.812;9.274;2022-07-22T11:08:51;32.80;94.50
19755;DHT22;10036;47.812;9.274;2022-07-22T11:11:31;32.90;95.10
19755;DHT22;10036;47.812;9.274;2022-07-22T11:13:58;33.00;93.90
19755;DHT22;10036;47.812;9.274;2022-07-22T11:16:26;32.90;93.80
19755;DHT22;10036;47.812;9.274;2022-07-22T11:18:55;32.80;93.20
19755;DHT22;10036;47.812;9.274;2022-07-22T11:21:24;32.80;92.40
19755;DHT22;10036;47.812;9.274;2022-07-22T11:23:53;32.60;93.30
19755;DHT22;10036;47.812;9.274;2022-07-22T11:26:25;32.50;93.20
19755;DHT22;10036;47.812;9.274;2022-07-22T11:28:52;32.60;92.70
19755;DHT22;10036;47.812;9.274;2022-07-22T11:31:19;32.40;93.70
19755;DHT22;10036;47.812;9.274;2022-07-22T11:33:46;32.20;93.90
19755;DHT22;10036;47.812;9.274;2022-07-22T11:36:14;32.20;93.90
19755;DHT22;10036;47.812;9.274;2022-07-22T11:38:46;31.90;92.20
19755;DHT22;10036;47.812;9.274;2022-07-22T11:41:15;31.70;94.40
19755;DHT22;10036;47.812;9.274;2022-07-22T11:43:45;31.60;92.70
19755;DHT22;10036;47.812;9.274;2022-07-22T11:46:13;31.50;92.50
19755;DHT22;10036;47.812;9.274;2022-07-22T11:48:41;31.40;94.20
19755;DHT22;10036;47.812;9.274;2022-07-22T11:51:09;31.50;94.50
19755;DHT22;10036;47.812;9.274;2022-07-22T11:53:37;31.40;94.90
19755;DHT22;10036;47.812;9.274;2022-07-22T11:56:06;31.50;95.30
19755;DHT22;10036;47.812;9.274;2022-07-22T11:58:35;31.50;94.60
19755;DHT22;10036;47.812;9.274;2022-07-22T12:01:04;31.50;94.10
19755;DHT22;10036;47.812;9.274;2022-07-22T12:03:32;31.40;93.50
19755;DHT22;10036;47.812;9.274;2022-07-22T12:06:00;31.40;93.70
19755;DHT22;10036;47.812;9.274;2022-07-22T12:08:27;31.30;94.50
19755;DHT22;10036;47.812;9.274;2022-07-22T12:10:56;31.50;94.60
19755;DHT22;10036;47.812;9.274;2022-07-22T12:13:28;31.60;94.20
19755;DHT22;10036;47.812;9.274;2022-07-22T12:15:55;31.50;92.70
19755;DHT22;10036;47.812;9.274;2022-07-22T12:18:25;31.40;93.90
19755;DHT22;10036;47.812;9.274;2022-07-22T12:20:54;31.50;92.80
19755;DHT22;10036;47.812;9.274;2022-07-22T12:23:22;31.40;93.10
19755;DHT22;10036;47.812;9.274;2022-07-22T12:25:50;31.50;92.80
19755;DHT22;10036;47.812;9.274;2022-07-22T12:28:17;31.60;91.70
19755;DHT22;10036;47.812;9.274;2022-07-22T12:30:44;31.50;92.30
19755;DHT22;10036;47.812;9.274;2022-07-22T12:33:13;31.50;90.40
19755;DHT22;10036;47.812;9.274;2022-07-22T12:35:42;31.40;90.20
19755;DHT22;10036;47.812;9.274;2022-07-22T12:38:10;31.20;91.60
19755;DHT22;10036;47.812;9.274;2022-07-22T12:40:38;31.20;91.70
19755;DHT22;10036;47.812;9.274;2022-07-22T12:43:06;31.30;92.00
19755;DHT22;10036;47.812;9.274;2022-07-22T12:45:35;31.40;91.70
19755;DHT22;10036;47.812;9.274;2022-07-22T12:48:07;31.50;91.00
19755;DHT22;10036;47.812;9.274;2022-07-22T12:50:36;31.50;91.30
19755;DHT22;10036;47.812;9.274;2022-07-22T12:53:06;31.60;92.20
19755;DHT22;10036;47.812;9.274;2022-07-22T12:55:35;31.70;91.10
19755;DHT22;10036;47.812;9.274;2022-07-22T12:58:03;31.80;91.40
19755;DHT22;10036;47.812;9.274;2022-07-22T13:00:32;31.70;90.70
19755;DHT22;10036;47.812;9.274;2022-07-22T13:02:59;31.80;91.00
19755;DHT22;10036;47.812;9.274;2022-07-22T13:05:27;31.80;90.10
19755;DHT22;10036;47.812;9.274;2022-07-22T13:07:54;31.80;89.80
19755;DHT22;10036;47.812;9.274;2022-07-22T13:10:24;31.70;90.00
19755;DHT22;10036;47.812;9.274;2022-07-22T13:12:52;31.50;89.20
19755;DHT22;10036;47.812;9.274;2022-07-22T13:15:20;31.40;88.80
19755;DHT22;10036;47.812;9.274;2022-07-22T13:17:48;31.60;87.50
19755;DHT22;10036;47.812;9.274;2022-07-22T13:20:16;31.60;80.00
19755;DHT22;10036;47.812;9.274;2022-07-22T13:22:44;31.70;79.20
19755;DHT22;10036;47.812;9.274;2022-07-22T13:25:12;31.80;81.60
19755;DHT22;10036;47.812;9.274;2022-07-22T13:27:41;31.70;78.00
19755;DHT22;10036;47.812;9.274;2022-07-22T13:30:08;31.80;79.60
19755;DHT22;10036;47.812;9.274;2022-07-22T13:32:35;31.80;76.60
19755;DHT22;10036;47.812;9.274;2022-07-22T13:35:03;31.90;78.20
19755;DHT22;10036;47.812;9.274;2022-07-22T13:37:30;32.10;78.90
19755;DHT22;10036;47.812;9.274;2022-07-22T13:39:57;32.00;79.80
19755;DHT22;10036;47.812;9.274;2022-07-22T13:42:24;32.00;75.50
19755;DHT22;10036;47.812;9.274;2022-07-22T13:44:52;32.00;79.80
19755;DHT22;10036;47.812;9.274;2022-07-22T13:47:20;32.20;79.50
19755;DHT22;10036;47.812;9.274;2022-07-22T13:49:48;32.40;79.50
19755;DHT22;10036;47.812;9.274;2022-07-22T13:52:15;32.50;81.40
19755;DHT22;10036;47.812;9.274;2022-07-22T13:54:42;32.60;80.60
19755;DHT22;10036;47.812;9.274;2022-07-22T13:57:09;32.70;81.50
19755;DHT22;10036;47.812;9.274;2022-07-22T13:59:36;32.90;80.40
19755;DHT22;10036;47.812;9.274;2022-07-22T14:02:05;32.90;79.60
19755;DHT22;10036;47.812;9.274;2022-07-22T14:04:32;33.00;80.20
19755;DHT22;10036;47.812;9.274;2022-07-22T14:06:59;33.10;81.10
19755;DHT22;10036;47.812;9.274;2022-07-22T14:09:26;33.20;78.60
19755;DHT22;10036;47.812;9.274;2022-07-22T14:11:52;33.30;78.60
19755;DHT22;10036;47.812;9.274;2022-07-22T14:14:19;33.20;80.00
19755;DHT22;10036;47.812;9.274;2022-07-22T14:16:46;33.50;80.50
19755;DHT22;10036;47.812;9.274;2022-07-22T14:19:16;33.70;76.50
19755;DHT22;10036;47.812;9.274;2022-07-22T14:21:44;33.90;78.20
19755;DHT22;10036;47.812;9.274;2022-07-22T14:24:11;34.10;78.40
19755;DHT22;10036;47.812;9.274;2022-07-22T14:26:38;34.50;78.80
19755;DHT22;10036;47.812;9.274;2022-07-22T14:29:07;34.80;77.50
19755;DHT22;10036;47.812;9.274;2022-07-22T14:31:34;34.60;76.80
19755;DHT22;10036;47.812;9.274;2022-07-22T14:34:01;34.70;76.70
19755;DHT22;10036;47.812;9.274;2022-07-22T14:36:30;35.00;73.20
19755;DHT22;10036;47.812;9.274;2022-07-22T14:38:57;34.90;68.80
19755;DHT22;10036;47.812;9.274;2022-07-22T14:41:24;34.90;67.90
19755;DHT22;10036;47.812;9.274;2022-07-22T14:43:51;34.90;69.10
19755;DHT22;10036;47.812;9.274;2022-07-22T14:46:18;34.70;67.70
19755;DHT22;10036;47.812;9.274;2022-07-22T14:48:45;34.80;67.00
19755;DHT22;10036;47.812;9.274;2022-07-22T14:51:14;34.70;68.00
19755;DHT22;10036;47.812;9.274;2022-07-22T14:53:42;34.70;68.20
19755;DHT22;10036;47.812;9.274;2022-07-22T14:56:09;34.60;67.40
19755;DHT22;10036;47.812;9.274;2022-07-22T14:58:36;34.60;67.80
19755;DHT22;10036;47.812;9.274;2022-07-22T15:01:03;34.60;68.20
19755;DHT22;10036;47.812;9.274;2022-07-22T15:03:30;34.50;67.00
19755;DHT22;10036;47.812;9.274;2022-07-22T15:05:57;34.50;66.90
19755;DHT22;10036;47.812;9.274;2022-07-22T15:08:23;34.50;66.30
19755;DHT22;10036;47.812;9.274;2022-07-22T15:10:52;34.50;68.70
19755;DHT22;10036;47.812;9.274;2022-07-22T15:13:19;34.60;67.90
19755;DHT22;10036;47.812;9.274;2022-07-22T15:15:46;34.50;67.40
19755;DHT22;10036;47.812;9.274;2022-07-22T15:18:13;34.80;67.70
19755;DHT22;10036;47.812;9.274;2022-07-22T15:20:40;35.00;67.50
19755;DHT22;10036;47.812;9.274;2022-07-22T15:23:07;35.10;66.30
19755;DHT22;10036;47.812;9.274;2022-07-22T15:25:35;35.10;65.30
19755;DHT22;10036;47.812;9.274;2022-07-22T15:28:04;35.00;66.40
19755;DHT22;10036;47.812;9.274;2022-07-22T15:30:31;35.00;66.60
19755;DHT22;10036;47.812;9.274;2022-07-22T15:32:58;35.00;66.40
19755;DHT22;10036;47.812;9.274;2022-07-22T15:35:25;35.10;66.50